sensor_id;sensor_type;location;lat;lon;timestamp;P1;durP1;ratioP1;P2;durP2;ratioP2
51194;SDS011;37259;49.972;19.850;2022-12-18T00:00:46;39.9;;;20.7;;
51194;SDS011;37259;49.972;19.850;2022-12-18T00:01:46;39.9;;;20.7;;
51194;SDS011;37259;49.972;19.850;2022-12-18T00:02:46;39.9;;;20.7;;
51194;SDS011;37259;49.972;19.850;2022-12-18T00:03:46;39.9;;;20.7;;
51194;SDS011;37259;49.972;19.850;2022-12-18T00:04:46;39.9;;;20.7;;
51194;SDS011;37259;49.972;19.850;2022-12-18T00:05:46;39.9;;;20.7;;
51194;SDS011;37259;49.972;19.850;2022-12-18T00:06:46;39.9;;;20.7;;
51194;SDS011;37259;49.972;19.850;2022-12-18T00:07:46;39.9;;;20.7;;
51194;SDS011;37259;49.972;19.850;2022-12-18T00:08:46;39.9;;;20.7;;
51194;SDS011;37259;49.972;19.850;2022-12-18T00:09:46;39.9;;;20.7;;
51194;SDS011;37259;49.972;19.850;2022-12-18T00:10:46;39.9;;;20.7;;
51194;SDS011;37259;49.972;19.850;2022-12-18T00:11:46;39.9;;;20.7;;
51194;SDS011;37259;49.972;19.850;2022-12-18T00:12:46;39.9;;;20.7;;
51194;SDS011;37259;49.972;19.850;2022-12-18T00:13:46;39.9;;;20.7;;
51194;SDS011;37259;49.972;19.850;2022-12-18T00:14:46;39.9;;;20.7;;
51194;SDS011;37259;49.972;19.850;2022-12-18T00:15:46;39.9;;;20.7;;
51194;SDS011;37259;49.972;19.850;2022-12-18T00:16:46;39.9;;;20.7;;
51194;SDS011;37259;49.972;19.850;2022-12-18T00:17:46;39.9;;;20.7;;
51194;SDS011;37259;49.972;19.850;2022-12-18T00:18:46;39.9;;;20.7;;
51194;SDS011;37259;49.972;19.850;2022-12-18T00:19:46;39.9;;;20.7;;
51194;SDS011;37259;49.972;19.850;2022-12-18T00:20:46;39.9;;;20.7;;
51194;SDS011;37259;49.972;19.850;2022-12-18T00:21:46;39.9;;;20.7;;
51194;SDS011;37259;49.972;19.850;2022-12-18T00:22:46;39.9;;;20.7;;
51194;SDS011;37259;49.972;19.850;2022-12-18T00:23:46;39.9;;;20.7;;
51194;SDS011;37259;49.972;19.850;2022-12-18T00:24:46;39.9;;;20.7;;
51194;SDS011;37259;49.972;19.850;2022-12-18T00:25:46;39.9;;;20.7;;
51194;SDS011;37259;49.972;19.850;2022-12-18T00:26:46;39.9;;;20.7;;
51194;SDS011;37259;49.972;19.850;2022-12-18T00:27:46;39.9;;;20.7;;
51194;SDS011;37259;49.972;19.850;2022-12-18T00:28:46;37.9;;;18.7;;
51194;SDS011;37259;49.972;19.850;2022-12-18T00:29:47;37.9;;;18.7;;
51194;SDS011;37259;49.972;19.850;2022-12-18T00:30:46;37.9;;;18.7;;
51194;SDS011;37259;49.972;19.850;2022-12-18T00:31:46;37.9;;;18.7;;
51194;SDS011;37259;49.972;19.850;2022-12-18T00:32:46;37.9;;;18.7;;
51194;SDS011;37259;49.972;19.850;2022-12-18T00:33:46;37.9;;;18.7;;
51194;SDS011;37259;49.972;19.850;2022-12-18T00:34:46;37.9;;;18.7;;
51194;SDS011;37259;49.972;19.850;2022-12-18T00:35:46;37.9;;;18.7;;
51194;SDS011;37259;49.972;19.850;2022-12-18T00:36:47;37.9;;;18.7;;
51194;SDS011;37259;49.972;19.850;2022-12-18T00:37:46;37.9;;;18.7;;
51194;SDS011;37259;49.972;19.850;2022-12-18T00:38:46;37.9;;;18.7;;
51194;SDS011;37259;49.972;19.850;2022-12-18T00:39:47;37.9;;;18.7;;
51194;SDS011;37259;49.972;19.850;2022-12-18T00:40:46;37.9;;;18.7;;
51194;SDS011;37259;49.972;19.850;2022-12-18T00:41:46;37.9;;;18.7;;
51194;SDS011;37259;49.972;19.850;2022-12-18T00:43:46;37.9;;;18.7;;
51194;SDS011;37259;49.972;19.850;2022-12-18T00:44:46;37.9;;;18.7;;
51194;SDS011;37259;49.972;19.850;2022-12-18T00:45:46;37.9;;;18.7;;
51194;SDS011;37259;49.972;19.850;2022-12-18T00:46:46;37.9;;;18.7;;
51194;SDS011;37259;49.972;19.850;2022-12-18T00:47:46;37.9;;;18.7;;
51194;SDS011;37259;49.972;19.850;2022-12-18T00:48:46;37.9;;;18.7;;
51194;SDS011;37259;49.972;19.850;2022-12-18T00:49:46;37.9;;;18.7;;
51194;SDS011;37259;49.972;19.850;2022-12-18T00:50:47;37.9;;;18.7;;
51194;SDS011;37259;49.972;19.850;2022-12-18T00:51:46;37.9;;;18.7;;
51194;SDS011;37259;49.972;19.850;2022-12-18T00:52:46;37.9;;;18.7;;
51194;SDS011;37259;49.972;19.850;2022-12-18T00:53:46;37.9;;;18.7;;
51194;SDS011;37259;49.972;19.850;2022-12-18T00:54:46;37.9;;;18.7;;
51194;SDS011;37259;49.972;19.850;2022-12-18T00:55:46;37.9;;;18.7;;
51194;SDS011;37259;49.972;19.850;2022-12-18T00:56:46;37.9;;;18.7;;
51194;SDS011;37259;49.972;19.850;2022-12-18T00:57:46;37.9;;;18.7;;
51194;SDS011;37259;49.972;19.850;2022-12-18T00:58:46;43.4;;;20.2;;
51194;SDS011;37259;49.972;19.850;2022-12-18T00:59:46;43.4;;;20.2;;
51194;SDS011;37259;49.972;19.850;2022-12-18T01:00:46;43.4;;;20.2;;
51194;SDS011;37259;49.972;19.850;2022-12-18T01:01:46;43.4;;;20.2;;
51194;SDS011;37259;49.972;19.850;2022-12-18T01:02:46;43.4;;;20.2;;
51194;SDS011;37259;49.972;19.850;2022-12-18T01:03:46;43.4;;;20.2;;
51194;SDS011;37259;49.972;19.850;2022-12-18T01:04:46;43.4;;;20.2;;
51194;SDS011;37259;49.972;19.850;2022-12-18T01:05:46;43.4;;;20.2;;
51194;SDS011;37259;49.972;19.850;2022-12-18T01:06:46;43.4;;;20.2;;
51194;SDS011;37259;49.972;19.850;2022-12-18T01:07:46;43.4;;;20.2;;
51194;SDS011;37259;49.972;19.850;2022-12-18T01:08:46;43.4;;;20.2;;
51194;SDS011;37259;49.972;19.850;2022-12-18T01:09:46;43.4;;;20.2;;
51194;SDS011;37259;49.972;19.850;2022-12-18T01:10:46;43.4;;;20.2;;
51194;SDS011;37259;49.972;19.850;2022-12-18T01:11:46;43.4;;;20.2;;
51194;SDS011;37259;49.972;19.850;2022-12-18T01:12:46;43.4;;;20.2;;
51194;SDS011;37259;49.972;19.850;2022-12-18T01:13:46;43.4;;;20.2;;
51194;SDS011;37259;49.972;19.850;2022-12-18T01:14:46;43.4;;;20.2;;
51194;SDS011;37259;49.972;19.850;2022-12-18T01:15:47;43.4;;;20.2;;
51194;SDS011;37259;49.972;19.850;2022-12-18T01:16:46;43.4;;;20.2;;
51194;SDS011;37259;49.972;19.850;2022-12-18T01:17:46;43.4;;;20.2;;
51194;SDS011;37259;49.972;19.850;2022-12-18T01:18:46;43.4;;;20.2;;
51194;SDS011;37259;49.972;19.850;2022-12-18T01:19:46;43.4;;;20.2;;
51194;SDS011;37259;49.972;19.850;2022-12-18T01:20:46;43.4;;;20.2;;
51194;SDS011;37259;49.972;19.850;2022-12-18T01:21:46;43.4;;;20.2;;
51194;SDS011;37259;49.972;19.850;2022-12-18T01:22:46;43.4;;;20.2;;
51194;SDS011;37259;49.972;19.850;2022-12-18T01:23:46;43.4;;;20.2;;
51194;SDS011;37259;49.972;19.850;2022-12-18T01:24:46;43.4;;;20.2;;
51194;SDS011;37259;49.972;19.850;2022-12-18T01:25:46;43.4;;;20.2;;
51194;SDS011;37259;49.972;19.850;2022-12-18T01:26:46;43.4;;;20.2;;
51194;SDS011;37259;49.972;19.850;2022-12-18T01:27:46;43.4;;;20.2;;
51194;SDS011;37259;49.972;19.850;2022-12-18T01:28:46;37.2;;;16.9;;
51194;SDS011;37259;49.972;19.850;2022-12-18T01:29:46;37.2;;;16.9;;
51194;SDS011;37259;49.972;19.850;2022-12-18T01:30:46;37.2;;;16.9;;
51194;SDS011;37259;49.972;19.850;2022-12-18T01:31:46;37.2;;;16.9;;
51194;SDS011;37259;49.972;19.850;2022-12-18T01:32:46;37.2;;;16.9;;
51194;SDS011;37259;49.972;19.850;2022-12-18T01:33:46;37.2;;;16.9;;
51194;SDS011;37259;49.972;19.850;2022-12-18T01:34:46;37.2;;;16.9;;
51194;SDS011;37259;49.972;19.850;2022-12-18T01:35:46;37.2;;;16.9;;
51194;SDS011;37259;49.972;19.850;2022-12-18T01:36:46;37.2;;;16.9;;
51194;SDS011;37259;49.972;19.850;2022-12-18T01:37:46;37.2;;;16.9;;
51194;SDS011;37259;49.972;19.850;2022-12-18T01:38:46;37.2;;;16.9;;
51194;SDS011;37259;49.972;19.850;2022-12-18T01:39:46;37.2;;;16.9;;
51194;SDS011;37259;49.972;19.850;2022-12-18T01:40:46;37.2;;;16.9;;
51194;SDS011;37259;49.972;19.850;2022-12-18T01:41:46;37.2;;;16.9;;
51194;SDS011;37259;49.972;19.850;2022-12-18T01:42:49;37.2;;;16.9;;
51194;SDS011;37259;49.972;19.850;2022-12-18T01:43:48;37.2;;;16.9;;
51194;SDS011;37259;49.972;19.850;2022-12-18T01:45:46;37.2;;;16.9;;
51194;SDS011;37259;49.972;19.850;2022-12-18T01:45:50;37.2;;;16.9;;
51194;SDS011;37259;49.972;19.850;2022-12-18T01:46:46;37.2;;;16.9;;
51194;SDS011;37259;49.972;19.850;2022-12-18T01:47:47;37.2;;;16.9;;
51194;SDS011;37259;49.972;19.850;2022-12-18T01:48:47;37.2;;;16.9;;
51194;SDS011;37259;49.972;19.850;2022-12-18T01:49:46;37.2;;;16.9;;
51194;SDS011;37259;49.972;19.850;2022-12-18T01:50:46;37.2;;;16.9;;
51194;SDS011;37259;49.972;19.850;2022-12-18T01:51:46;37.2;;;16.9;;
51194;SDS011;37259;49.972;19.850;2022-12-18T01:52:46;37.2;;;16.9;;
51194;SDS011;37259;49.972;19.850;2022-12-18T01:53:46;37.2;;;16.9;;
51194;SDS011;37259;49.972;19.850;2022-12-18T01:54:46;37.2;;;16.9;;
51194;SDS011;37259;49.972;19.850;2022-12-18T01:55:46;37.2;;;16.9;;
51194;SDS011;37259;49.972;19.850;2022-12-18T01:56:46;37.2;;;16.9;;
51194;SDS011;37259;49.972;19.850;2022-12-18T01:57:46;37.2;;;16.9;;
51194;SDS011;37259;49.972;19.850;2022-12-18T01:58:48;38.6;;;17.8;;
51194;SDS011;37259;49.972;19.850;2022-12-18T01:59:47;38.6;;;17.8;;
51194;SDS011;37259;49.972;19.850;2022-12-18T02:00:46;38.6;;;17.8;;
51194;SDS011;37259;49.972;19.850;2022-12-18T02:01:46;38.6;;;17.8;;
51194;SDS011;37259;49.972;19.850;2022-12-18T02:02:46;38.6;;;17.8;;
51194;SDS011;37259;49.972;19.850;2022-12-18T02:03:46;38.6;;;17.8;;
51194;SDS011;37259;49.972;19.850;2022-12-18T02:04:46;38.6;;;17.8;;
51194;SDS011;37259;49.972;19.850;2022-12-18T02:05:47;38.6;;;17.8;;
51194;SDS011;37259;49.972;19.850;2022-12-18T02:06:46;38.6;;;17.8;;
51194;SDS011;37259;49.972;19.850;2022-12-18T02:07:49;38.6;;;17.8;;
51194;SDS011;37259;49.972;19.850;2022-12-18T02:08:48;38.6;;;17.8;;
51194;SDS011;37259;49.972;19.850;2022-12-18T02:09:47;38.6;;;17.8;;
51194;SDS011;37259;49.972;19.850;2022-12-18T02:10:47;38.6;;;17.8;;
51194;SDS011;37259;49.972;19.850;2022-12-18T02:11:48;38.6;;;17.8;;
51194;SDS011;37259;49.972;19.850;2022-12-18T02:12:48;38.6;;;17.8;;
51194;SDS011;37259;49.972;19.850;2022-12-18T02:13:48;38.6;;;17.8;;
51194;SDS011;37259;49.972;19.850;2022-12-18T02:14:49;38.6;;;17.8;;
51194;SDS011;37259;49.972;19.850;2022-12-18T02:15:49;38.6;;;17.8;;
51194;SDS011;37259;49.972;19.850;2022-12-18T02:16:48;38.6;;;17.8;;
51194;SDS011;37259;49.972;19.850;2022-12-18T02:17:47;38.6;;;17.8;;
51194;SDS011;37259;49.972;19.850;2022-12-18T02:18:47;38.6;;;17.8;;
51194;SDS011;37259;49.972;19.850;2022-12-18T02:19:48;38.6;;;17.8;;
51194;SDS011;37259;49.972;19.850;2022-12-18T02:20:47;38.6;;;17.8;;
51194;SDS011;37259;49.972;19.850;2022-12-18T02:21:49;38.6;;;17.8;;
51194;SDS011;37259;49.972;19.850;2022-12-18T02:22:49;38.6;;;17.8;;
51194;SDS011;37259;49.972;19.850;2022-12-18T02:23:47;38.6;;;17.8;;
51194;SDS011;37259;49.972;19.850;2022-12-18T02:24:49;38.6;;;17.8;;
51194;SDS011;37259;49.972;19.850;2022-12-18T02:25:57;38.6;;;17.8;;
51194;SDS011;37259;49.972;19.850;2022-12-18T02:26:46;38.6;;;17.8;;
51194;SDS011;37259;49.972;19.850;2022-12-18T02:27:46;38.6;;;17.8;;
51194;SDS011;37259;49.972;19.850;2022-12-18T02:28:47;29.7;;;14.6;;
51194;SDS011;37259;49.972;19.850;2022-12-18T02:29:47;29.7;;;14.6;;
51194;SDS011;37259;49.972;19.850;2022-12-18T02:30:46;29.7;;;14.6;;
51194;SDS011;37259;49.972;19.850;2022-12-18T02:31:47;29.7;;;14.6;;
51194;SDS011;37259;49.972;19.850;2022-12-18T02:32:47;29.7;;;14.6;;
51194;SDS011;37259;49.972;19.850;2022-12-18T02:33:46;29.7;;;14.6;;
51194;SDS011;37259;49.972;19.850;2022-12-18T02:34:46;29.7;;;14.6;;
51194;SDS011;37259;49.972;19.850;2022-12-18T02:35:46;29.7;;;14.6;;
51194;SDS011;37259;49.972;19.850;2022-12-18T02:36:46;29.7;;;14.6;;
51194;SDS011;37259;49.972;19.850;2022-12-18T02:37:46;29.7;;;14.6;;
51194;SDS011;37259;49.972;19.850;2022-12-18T02:38:46;29.7;;;14.6;;
51194;SDS011;37259;49.972;19.850;2022-12-18T02:39:46;29.7;;;14.6;;
51194;SDS011;37259;49.972;19.850;2022-12-18T02:40:46;29.7;;;14.6;;
51194;SDS011;37259;49.972;19.850;2022-12-18T02:41:46;29.7;;;14.6;;
51194;SDS011;37259;49.972;19.850;2022-12-18T02:42:46;29.7;;;14.6;;
51194;SDS011;37259;49.972;19.850;2022-12-18T02:43:47;29.7;;;14.6;;
51194;SDS011;37259;49.972;19.850;2022-12-18T02:44:47;29.7;;;14.6;;
51194;SDS011;37259;49.972;19.850;2022-12-18T02:45:46;29.7;;;14.6;;
51194;SDS011;37259;49.972;19.850;2022-12-18T02:46:48;29.7;;;14.6;;
51194;SDS011;37259;49.972;19.850;2022-12-18T02:47:47;29.7;;;14.6;;
51194;SDS011;37259;49.972;19.850;2022-12-18T02:48:46;29.7;;;14.6;;
51194;SDS011;37259;49.972;19.850;2022-12-18T02:49:49;29.7;;;14.6;;
51194;SDS011;37259;49.972;19.850;2022-12-18T02:50:48;29.7;;;14.6;;
51194;SDS011;37259;49.972;19.850;2022-12-18T02:51:48;29.7;;;14.6;;
51194;SDS011;37259;49.972;19.850;2022-12-18T02:52:49;29.7;;;14.6;;
51194;SDS011;37259;49.972;19.850;2022-12-18T02:53:48;29.7;;;14.6;;
51194;SDS011;37259;49.972;19.850;2022-12-18T02:54:50;29.7;;;14.6;;
51194;SDS011;37259;49.972;19.850;2022-12-18T02:55:50;29.7;;;14.6;;
51194;SDS011;37259;49.972;19.850;2022-12-18T02:56:48;29.7;;;14.6;;
51194;SDS011;37259;49.972;19.850;2022-12-18T02:57:47;27.8;;;15.2;;
51194;SDS011;37259;49.972;19.850;2022-12-18T02:58:47;27.8;;;15.2;;
51194;SDS011;37259;49.972;19.850;2022-12-18T02:59:48;27.8;;;15.2;;
51194;SDS011;37259;49.972;19.850;2022-12-18T03:00:48;27.8;;;15.2;;
51194;SDS011;37259;49.972;19.850;2022-12-18T03:01:47;27.8;;;15.2;;
51194;SDS011;37259;49.972;19.850;2022-12-18T03:02:47;27.8;;;15.2;;
51194;SDS011;37259;49.972;19.850;2022-12-18T03:03:46;27.8;;;15.2;;
51194;SDS011;37259;49.972;19.850;2022-12-18T03:04:47;27.8;;;15.2;;
51194;SDS011;37259;49.972;19.850;2022-12-18T03:05:47;27.8;;;15.2;;
51194;SDS011;37259;49.972;19.850;2022-12-18T03:06:47;27.8;;;15.2;;
51194;SDS011;37259;49.972;19.850;2022-12-18T03:07:47;27.8;;;15.2;;
51194;SDS011;37259;49.972;19.850;2022-12-18T03:08:47;27.8;;;15.2;;
51194;SDS011;37259;49.972;19.850;2022-12-18T03:09:47;27.8;;;15.2;;
51194;SDS011;37259;49.972;19.850;2022-12-18T03:10:48;27.8;;;15.2;;
51194;SDS011;37259;49.972;19.850;2022-12-18T03:11:46;27.8;;;15.2;;
51194;SDS011;37259;49.972;19.850;2022-12-18T03:12:47;27.8;;;15.2;;
51194;SDS011;37259;49.972;19.850;2022-12-18T03:13:46;27.8;;;15.2;;
51194;SDS011;37259;49.972;19.850;2022-12-18T03:14:46;27.8;;;15.2;;
51194;SDS011;37259;49.972;19.850;2022-12-18T03:15:47;27.8;;;15.2;;
51194;SDS011;37259;49.972;19.850;2022-12-18T03:16:46;27.8;;;15.2;;
51194;SDS011;37259;49.972;19.850;2022-12-18T03:17:48;27.8;;;15.2;;
51194;SDS011;37259;49.972;19.850;2022-12-18T03:18:47;27.8;;;15.2;;
51194;SDS011;37259;49.972;19.850;2022-12-18T03:19:46;27.8;;;15.2;;
51194;SDS011;37259;49.972;19.850;2022-12-18T03:20:46;27.8;;;15.2;;
51194;SDS011;37259;49.972;19.850;2022-12-18T03:21:47;27.8;;;15.2;;
51194;SDS011;37259;49.972;19.850;2022-12-18T03:22:46;27.8;;;15.2;;
51194;SDS011;37259;49.972;19.850;2022-12-18T03:23:47;27.8;;;15.2;;
51194;SDS011;37259;49.972;19.850;2022-12-18T03:24:46;27.8;;;15.2;;
51194;SDS011;37259;49.972;19.850;2022-12-18T03:25:46;27.8;;;15.2;;
51194;SDS011;37259;49.972;19.850;2022-12-18T03:26:47;27.8;;;15.2;;
51194;SDS011;37259;49.972;19.850;2022-12-18T03:27:47;34.8;;;15.2;;
51194;SDS011;37259;49.972;19.850;2022-12-18T03:28:47;34.8;;;15.2;;
51194;SDS011;37259;49.972;19.850;2022-12-18T03:29:47;34.8;;;15.2;;
51194;SDS011;37259;49.972;19.850;2022-12-18T03:30:46;34.8;;;15.2;;
51194;SDS011;37259;49.972;19.850;2022-12-18T03:31:47;34.8;;;15.2;;
51194;SDS011;37259;49.972;19.850;2022-12-18T03:32:47;34.8;;;15.2;;
51194;SDS011;37259;49.972;19.850;2022-12-18T03:33:47;34.8;;;15.2;;
51194;SDS011;37259;49.972;19.850;2022-12-18T03:34:46;34.8;;;15.2;;
51194;SDS011;37259;49.972;19.850;2022-12-18T03:35:46;34.8;;;15.2;;
51194;SDS011;37259;49.972;19.850;2022-12-18T03:36:46;34.8;;;15.2;;
51194;SDS011;37259;49.972;19.850;2022-12-18T03:37:46;34.8;;;15.2;;
51194;SDS011;37259;49.972;19.850;2022-12-18T03:38:46;34.8;;;15.2;;
51194;SDS011;37259;49.972;19.850;2022-12-18T03:39:46;34.8;;;15.2;;
51194;SDS011;37259;49.972;19.850;2022-12-18T03:40:51;34.8;;;15.2;;
51194;SDS011;37259;49.972;19.850;2022-12-18T03:41:47;34.8;;;15.2;;
51194;SDS011;37259;49.972;19.850;2022-12-18T03:42:46;34.8;;;15.2;;
51194;SDS011;37259;49.972;19.850;2022-12-18T03:43:48;34.8;;;15.2;;
51194;SDS011;37259;49.972;19.850;2022-12-18T03:44:48;34.8;;;15.2;;
51194;SDS011;37259;49.972;19.850;2022-12-18T03:45:48;34.8;;;15.2;;
51194;SDS011;37259;49.972;19.850;2022-12-18T03:46:47;34.8;;;15.2;;
51194;SDS011;37259;49.972;19.850;2022-12-18T03:47:47;34.8;;;15.2;;
51194;SDS011;37259;49.972;19.850;2022-12-18T03:48:46;34.8;;;15.2;;
51194;SDS011;37259;49.972;19.850;2022-12-18T03:49:47;34.8;;;15.2;;
51194;SDS011;37259;49.972;19.850;2022-12-18T03:50:46;34.8;;;15.2;;
51194;SDS011;37259;49.972;19.850;2022-12-18T03:51:47;34.8;;;15.2;;
51194;SDS011;37259;49.972;19.850;2022-12-18T03:52:47;34.8;;;15.2;;
51194;SDS011;37259;49.972;19.850;2022-12-18T03:53:47;34.8;;;15.2;;
51194;SDS011;37259;49.972;19.850;2022-12-18T03:54:46;34.8;;;15.2;;
51194;SDS011;37259;49.972;19.850;2022-12-18T03:55:46;34.8;;;15.2;;
51194;SDS011;37259;49.972;19.850;2022-12-18T03:56:46;34.8;;;15.2;;
51194;SDS011;37259;49.972;19.850;2022-12-18T03:57:46;31.2;;;14.2;;
51194;SDS011;37259;49.972;19.850;2022-12-18T03:58:46;31.2;;;14.2;;
51194;SDS011;37259;49.972;19.850;2022-12-18T03:59:47;31.2;;;14.2;;
51194;SDS011;37259;49.972;19.850;2022-12-18T04:00:46;31.2;;;14.2;;
51194;SDS011;37259;49.972;19.850;2022-12-18T04:01:47;31.2;;;14.2;;
51194;SDS011;37259;49.972;19.850;2022-12-18T04:02:48;31.2;;;14.2;;
51194;SDS011;37259;49.972;19.850;2022-12-18T04:03:46;31.2;;;14.2;;
51194;SDS011;37259;49.972;19.850;2022-12-18T04:04:46;31.2;;;14.2;;
51194;SDS011;37259;49.972;19.850;2022-12-18T04:05:46;31.2;;;14.2;;
51194;SDS011;37259;49.972;19.850;2022-12-18T04:06:46;31.2;;;14.2;;
51194;SDS011;37259;49.972;19.850;2022-12-18T04:07:47;31.2;;;14.2;;
51194;SDS011;37259;49.972;19.850;2022-12-18T04:08:46;31.2;;;14.2;;
51194;SDS011;37259;49.972;19.850;2022-12-18T04:09:46;31.2;;;14.2;;
51194;SDS011;37259;49.972;19.850;2022-12-18T04:10:46;31.2;;;14.2;;
51194;SDS011;37259;49.972;19.850;2022-12-18T04:11:46;31.2;;;14.2;;
51194;SDS011;37259;49.972;19.850;2022-12-18T04:12:46;31.2;;;14.2;;
51194;SDS011;37259;49.972;19.850;2022-12-18T04:13:46;31.2;;;14.2;;
51194;SDS011;37259;49.972;19.850;2022-12-18T04:14:46;31.2;;;14.2;;
51194;SDS011;37259;49.972;19.850;2022-12-18T04:15:46;31.2;;;14.2;;
51194;SDS011;37259;49.972;19.850;2022-12-18T04:16:46;31.2;;;14.2;;
51194;SDS011;37259;49.972;19.850;2022-12-18T04:17:47;31.2;;;14.2;;
51194;SDS011;37259;49.972;19.850;2022-12-18T04:18:46;31.2;;;14.2;;
51194;SDS011;37259;49.972;19.850;2022-12-18T04:19:46;31.2;;;14.2;;
51194;SDS011;37259;49.972;19.850;2022-12-18T04:20:46;31.2;;;14.2;;
51194;SDS011;37259;49.972;19.850;2022-12-18T04:21:46;31.2;;;14.2;;
51194;SDS011;37259;49.972;19.850;2022-12-18T04:22:46;31.2;;;14.2;;
51194;SDS011;37259;49.972;19.850;2022-12-18T04:23:46;31.2;;;14.2;;
51194;SDS011;37259;49.972;19.850;2022-12-18T04:24:46;31.2;;;14.2;;
51194;SDS011;37259;49.972;19.850;2022-12-18T04:25:46;31.2;;;14.2;;
51194;SDS011;37259;49.972;19.850;2022-12-18T04:26:46;31.2;;;14.2;;
51194;SDS011;37259;49.972;19.850;2022-12-18T04:27:46;24.7;;;13.4;;
51194;SDS011;37259;49.972;19.850;2022-12-18T04:28:46;24.7;;;13.4;;
51194;SDS011;37259;49.972;19.850;2022-12-18T04:29:46;24.7;;;13.4;;
51194;SDS011;37259;49.972;19.850;2022-12-18T04:30:46;24.7;;;13.4;;
51194;SDS011;37259;49.972;19.850;2022-12-18T04:31:46;24.7;;;13.4;;
51194;SDS011;37259;49.972;19.850;2022-12-18T04:32:46;24.7;;;13.4;;
51194;SDS011;37259;49.972;19.850;2022-12-18T04:33:46;24.7;;;13.4;;
51194;SDS011;37259;49.972;19.850;2022-12-18T04:34:46;24.7;;;13.4;;
51194;SDS011;37259;49.972;19.850;2022-12-18T04:35:46;24.7;;;13.4;;
51194;SDS011;37259;49.972;19.850;2022-12-18T04:36:46;24.7;;;13.4;;
51194;SDS011;37259;49.972;19.850;2022-12-18T04:37:46;24.7;;;13.4;;
51194;SDS011;37259;49.972;19.850;2022-12-18T04:38:46;24.7;;;13.4;;
51194;SDS011;37259;49.972;19.850;2022-12-18T04:39:46;24.7;;;13.4;;
51194;SDS011;37259;49.972;19.850;2022-12-18T04:40:46;24.7;;;13.4;;
51194;SDS011;37259;49.972;19.850;2022-12-18T04:41:46;24.7;;;13.4;;
51194;SDS011;37259;49.972;19.850;2022-12-18T04:42:46;24.7;;;13.4;;
51194;SDS011;37259;49.972;19.850;2022-12-18T04:43:46;24.7;;;13.4;;
51194;SDS011;37259;49.972;19.850;2022-12-18T04:44:46;24.7;;;13.4;;
51194;SDS011;37259;49.972;19.850;2022-12-18T04:45:46;24.7;;;13.4;;
51194;SDS011;37259;49.972;19.850;2022-12-18T04:46:46;24.7;;;13.4;;
51194;SDS011;37259;49.972;19.850;2022-12-18T04:47:46;24.7;;;13.4;;
51194;SDS011;37259;49.972;19.850;2022-12-18T04:48:46;24.7;;;13.4;;
51194;SDS011;37259;49.972;19.850;2022-12-18T04:49:46;24.7;;;13.4;;
51194;SDS011;37259;49.972;19.850;2022-12-18T04:50:46;24.7;;;13.4;;
51194;SDS011;37259;49.972;19.850;2022-12-18T04:51:46;24.7;;;13.4;;
51194;SDS011;37259;49.972;19.850;2022-12-18T04:52:46;24.7;;;13.4;;
51194;SDS011;37259;49.972;19.850;2022-12-18T04:53:46;24.7;;;13.4;;
51194;SDS011;37259;49.972;19.850;2022-12-18T04:54:46;24.7;;;13.4;;
51194;SDS011;37259;49.972;19.850;2022-12-18T04:55:46;24.7;;;13.4;;
51194;SDS011;37259;49.972;19.850;2022-12-18T04:56:46;24.7;;;13.4;;
51194;SDS011;37259;49.972;19.850;2022-12-18T04:57:46;34.5;;;16.1;;
51194;SDS011;37259;49.972;19.850;2022-12-18T04:58:46;34.5;;;16.1;;
51194;SDS011;37259;49.972;19.850;2022-12-18T04:59:46;34.5;;;16.1;;
51194;SDS011;37259;49.972;19.850;2022-12-18T05:00:46;34.5;;;16.1;;
51194;SDS011;37259;49.972;19.850;2022-12-18T05:01:46;34.5;;;16.1;;
51194;SDS011;37259;49.972;19.850;2022-12-18T05:02:46;34.5;;;16.1;;
51194;SDS011;37259;49.972;19.850;2022-12-18T05:03:46;34.5;;;16.1;;
51194;SDS011;37259;49.972;19.850;2022-12-18T05:04:46;34.5;;;16.1;;
51194;SDS011;37259;49.972;19.850;2022-12-18T05:05:48;34.5;;;16.1;;
51194;SDS011;37259;49.972;19.850;2022-12-18T05:06:46;34.5;;;16.1;;
51194;SDS011;37259;49.972;19.850;2022-12-18T05:07:46;34.5;;;16.1;;
51194;SDS011;37259;49.972;19.850;2022-12-18T05:08:46;34.5;;;16.1;;
51194;SDS011;37259;49.972;19.850;2022-12-18T05:09:46;34.5;;;16.1;;
51194;SDS011;37259;49.972;19.850;2022-12-18T05:10:46;34.5;;;16.1;;
51194;SDS011;37259;49.972;19.850;2022-12-18T05:11:46;34.5;;;16.1;;
51194;SDS011;37259;49.972;19.850;2022-12-18T05:12:46;34.5;;;16.1;;
51194;SDS011;37259;49.972;19.850;2022-12-18T05:13:46;34.5;;;16.1;;
51194;SDS011;37259;49.972;19.850;2022-12-18T05:14:46;34.5;;;16.1;;
51194;SDS011;37259;49.972;19.850;2022-12-18T05:15:50;34.5;;;16.1;;
51194;SDS011;37259;49.972;19.850;2022-12-18T05:16:46;34.5;;;16.1;;
51194;SDS011;37259;49.972;19.850;2022-12-18T05:17:46;34.5;;;16.1;;
51194;SDS011;37259;49.972;19.850;2022-12-18T05:18:46;34.5;;;16.1;;
51194;SDS011;37259;49.972;19.850;2022-12-18T05:19:46;34.5;;;16.1;;
51194;SDS011;37259;49.972;19.850;2022-12-18T05:20:46;34.5;;;16.1;;
51194;SDS011;37259;49.972;19.850;2022-12-18T05:21:46;34.5;;;16.1;;
51194;SDS011;37259;49.972;19.850;2022-12-18T05:22:46;34.5;;;16.1;;
51194;SDS011;37259;49.972;19.850;2022-12-18T05:23:46;34.5;;;16.1;;
51194;SDS011;37259;49.972;19.850;2022-12-18T05:24:46;34.5;;;16.1;;
51194;SDS011;37259;49.972;19.850;2022-12-18T05:25:47;34.5;;;16.1;;
51194;SDS011;37259;49.972;19.850;2022-12-18T05:26:46;34.5;;;16.1;;
51194;SDS011;37259;49.972;19.850;2022-12-18T05:27:46;40.8;;;18.3;;
51194;SDS011;37259;49.972;19.850;2022-12-18T05:28:46;40.8;;;18.3;;
51194;SDS011;37259;49.972;19.850;2022-12-18T05:29:46;40.8;;;18.3;;
51194;SDS011;37259;49.972;19.850;2022-12-18T05:30:47;40.8;;;18.3;;
51194;SDS011;37259;49.972;19.850;2022-12-18T05:31:46;40.8;;;18.3;;
51194;SDS011;37259;49.972;19.850;2022-12-18T05:32:46;40.8;;;18.3;;
51194;SDS011;37259;49.972;19.850;2022-12-18T05:33:46;40.8;;;18.3;;
51194;SDS011;37259;49.972;19.850;2022-12-18T05:34:46;40.8;;;18.3;;
51194;SDS011;37259;49.972;19.850;2022-12-18T05:35:49;40.8;;;18.3;;
51194;SDS011;37259;49.972;19.850;2022-12-18T05:36:46;40.8;;;18.3;;
51194;SDS011;37259;49.972;19.850;2022-12-18T05:37:46;40.8;;;18.3;;
51194;SDS011;37259;49.972;19.850;2022-12-18T05:38:46;40.8;;;18.3;;
51194;SDS011;37259;49.972;19.850;2022-12-18T05:39:46;40.8;;;18.3;;
51194;SDS011;37259;49.972;19.850;2022-12-18T05:40:46;40.8;;;18.3;;
51194;SDS011;37259;49.972;19.850;2022-12-18T05:41:46;40.8;;;18.3;;
51194;SDS011;37259;49.972;19.850;2022-12-18T05:42:46;40.8;;;18.3;;
51194;SDS011;37259;49.972;19.850;2022-12-18T05:43:46;40.8;;;18.3;;
51194;SDS011;37259;49.972;19.850;2022-12-18T05:44:46;40.8;;;18.3;;
51194;SDS011;37259;49.972;19.850;2022-12-18T05:45:46;40.8;;;18.3;;
51194;SDS011;37259;49.972;19.850;2022-12-18T05:46:46;40.8;;;18.3;;
51194;SDS011;37259;49.972;19.850;2022-12-18T05:47:46;40.8;;;18.3;;
51194;SDS011;37259;49.972;19.850;2022-12-18T05:48:46;40.8;;;18.3;;
51194;SDS011;37259;49.972;19.850;2022-12-18T05:49:46;40.8;;;18.3;;
51194;SDS011;37259;49.972;19.850;2022-12-18T05:50:47;40.8;;;18.3;;
51194;SDS011;37259;49.972;19.850;2022-12-18T05:51:46;40.8;;;18.3;;
51194;SDS011;37259;49.972;19.850;2022-12-18T05:52:46;40.8;;;18.3;;
51194;SDS011;37259;49.972;19.850;2022-12-18T05:53:46;40.8;;;18.3;;
51194;SDS011;37259;49.972;19.850;2022-12-18T05:54:46;40.8;;;18.3;;
51194;SDS011;37259;49.972;19.850;2022-12-18T05:55:46;40.8;;;18.3;;
51194;SDS011;37259;49.972;19.850;2022-12-18T05:56:46;40.8;;;18.3;;
51194;SDS011;37259;49.972;19.850;2022-12-18T05:57:46;30.8;;;16;;